sensor_id;sensor_type;location;lat;lon;timestamp;temperature;humidity
2124;DHT22;1068;52.460;13.528;2022-07-15T00:01:27;18.10;97.20
2124;DHT22;1068;52.460;13.528;2022-07-15T00:03:54;18.00;97.50
2124;DHT22;1068;52.460;13.528;2022-07-15T00:06:21;17.90;97.70
2124;DHT22;1068;52.460;13.528;2022-07-15T00:08:47;17.90;97.80
2124;DHT22;1068;52.460;13.528;2022-07-15T00:11:14;17.80;98.00
2124;DHT22;1068;52.460;13.528;2022-07-15T00:13:41;17.80;98.30
2124;DHT22;1068;52.460;13.528;2022-07-15T00:16:08;17.80;98.50
2124;DHT22;1068;52.460;13.528;2022-07-15T00:18:35;17.70;98.90
2124;DHT22;1068;52.460;13.528;2022-07-15T00:21:01;17.70;98.90
2124;DHT22;1068;52.460;13.528;2022-07-15T00:23:28;17.70;99.10
2124;DHT22;1068;52.460;13.528;2022-07-15T00:25:55;17.70;99.30
2124;DHT22;1068;52.460;13.528;2022-07-15T00:28:21;17.60;99.60
2124;DHT22;1068;52.460;13.528;2022-07-15T00:30:50;17.60;99.80
2124;DHT22;1068;52.460;13.528;2022-07-15T00:33:17;17.60;99.90
2124;DHT22;1068;52.460;13.528;2022-07-15T00:35:43;17.60;99.90
2124;DHT22;1068;52.460;13.528;2022-07-15T00:38:10;17.70;99.90
2124;DHT22;1068;52.460;13.528;2022-07-15T00:40:41;17.70;99.90
2124;DHT22;1068;52.460;13.528;2022-07-15T00:43:08;17.70;99.90
2124;DHT22;1068;52.460;13.528;2022-07-15T00:45:35;17.60;99.90
2124;DHT22;1068;52.460;13.528;2022-07-15T00:48:04;17.60;99.90
2124;DHT22;1068;52.460;13.528;2022-07-15T00:50:31;17.50;99.90
2124;DHT22;1068;52.460;13.528;2022-07-15T00:53:02;17.60;99.90
2124;DHT22;1068;52.460;13.528;2022-07-15T00:55:30;17.60;99.90
2124;DHT22;1068;52.460;13.528;2022-07-15T00:58:01;17.60;99.90
2124;DHT22;1068;52.460;13.528;2022-07-15T01:00:29;17.60;99.90
2124;DHT22;1068;52.460;13.528;2022-07-15T01:02:57;17.60;99.90
2124;DHT22;1068;52.460;13.528;2022-07-15T01:05:26;17.50;99.90
2124;DHT22;1068;52.460;13.528;2022-07-15T01:07:53;17.50;99.90
2124;DHT22;1068;52.460;13.528;2022-07-15T01:10:21;17.50;99.90
2124;DHT22;1068;52.460;13.528;2022-07-15T01:12:50;17.50;99.90
2124;DHT22;1068;52.460;13.528;2022-07-15T01:15:17;17.40;99.90
2124;DHT22;1068;52.460;13.528;2022-07-15T01:17:45;17.30;99.90
2124;DHT22;1068;52.460;13.528;2022-07-15T01:20:14;17.30;99.90
2124;DHT22;1068;52.460;13.528;2022-07-15T01:22:42;17.20;99.90
2124;DHT22;1068;52.460;13.528;2022-07-15T01:25:09;17.20;99.90
2124;DHT22;1068;52.460;13.528;2022-07-15T01:27:36;17.10;99.90
2124;DHT22;1068;52.460;13.528;2022-07-15T01:30:03;17.10;99.90
2124;DHT22;1068;52.460;13.528;2022-07-15T01:32:30;17.10;99.90
2124;DHT22;1068;52.460;13.528;2022-07-15T01:34:56;17.10;99.90
2124;DHT22;1068;52.460;13.528;2022-07-15T01:37:23;17.00;99.90
2124;DHT22;1068;52.460;13.528;2022-07-15T01:39:51;16.90;99.90
2124;DHT22;1068;52.460;13.528;2022-07-15T01:42:17;16.90;99.90
2124;DHT22;1068;52.460;13.528;2022-07-15T01:44:44;16.80;99.90
2124;DHT22;1068;52.460;13.528;2022-07-15T01:47:10;16.80;99.90
2124;DHT22;1068;52.460;13.528;2022-07-15T01:49:37;16.70;99.90
2124;DHT22;1068;52.460;13.528;2022-07-15T01:52:04;16.70;99.90
2124;DHT22;1068;52.460;13.528;2022-07-15T01:54:34;16.70;99.90
2124;DHT22;1068;52.460;13.528;2022-07-15T01:57:02;16.70;99.90
2124;DHT22;1068;52.460;13.528;2022-07-15T01:59:29;16.70;99.90
2124;DHT22;1068;52.460;13.528;2022-07-15T02:01:56;16.60;99.90
2124;DHT22;1068;52.460;13.528;2022-07-15T02:04:23;16.60;99.90
2124;DHT22;1068;52.460;13.528;2022-07-15T02:06:50;16.60;99.90
2124;DHT22;1068;52.460;13.528;2022-07-15T02:09:16;16.60;99.90
2124;DHT22;1068;52.460;13.528;2022-07-15T02:11:43;16.60;99.90
2124;DHT22;1068;52.460;13.528;2022-07-15T02:14:11;16.50;99.90
2124;DHT22;1068;52.460;13.528;2022-07-15T02:16:38;16.40;99.90
2124;DHT22;1068;52.460;13.528;2022-07-15T02:19:04;16.40;99.90
2124;DHT22;1068;52.460;13.528;2022-07-15T02:21:31;16.40;99.90
2124;DHT22;1068;52.460;13.528;2022-07-15T02:23:58;16.40;99.90
2124;DHT22;1068;52.460;13.528;2022-07-15T02:26:24;16.40;99.90
2124;DHT22;1068;52.460;13.528;2022-07-15T02:28:51;16.40;99.90
2124;DHT22;1068;52.460;13.528;2022-07-15T02:31:19;16.40;99.90
2124;DHT22;1068;52.460;13.528;2022-07-15T02:33:46;16.40;99.90
2124;DHT22;1068;52.460;13.528;2022-07-15T02:36:12;16.40;99.90
2124;DHT22;1068;52.460;13.528;2022-07-15T02:38:39;16.40;99.90
2124;DHT22;1068;52.460;13.528;2022-07-15T02:41:07;16.40;99.90
2124;DHT22;1068;52.460;13.528;2022-07-15T02:43:34;16.30;99.90
2124;DHT22;1068;52.460;13.528;2022-07-15T02:46:01;16.20;99.90
2124;DHT22;1068;52.460;13.528;2022-07-15T02:48:29;16.20;99.90
2124;DHT22;1068;52.460;13.528;2022-07-15T02:50:57;16.20;99.90
2124;DHT22;1068;52.460;13.528;2022-07-15T02:53:23;16.20;99.90
2124;DHT22;1068;52.460;13.528;2022-07-15T02:55:54;16.20;99.90
2124;DHT22;1068;52.460;13.528;2022-07-15T02:58:22;16.20;99.90
2124;DHT22;1068;52.460;13.528;2022-07-15T03:00:48;16.20;99.90
2124;DHT22;1068;52.460;13.528;2022-07-15T03:03:15;16.20;99.90
2124;DHT22;1068;52.460;13.528;2022-07-15T03:20:00;16.00;99.90
2124;DHT22;1068;52.460;13.528;2022-07-15T03:22:27;16.00;99.90
2124;DHT22;1068;52.460;13.528;2022-07-15T03:24:54;16.00;99.90
2124;DHT22;1068;52.460;13.528;2022-07-15T03:27:20;15.90;99.90
2124;DHT22;1068;52.460;13.528;2022-07-15T03:29:47;16.00;99.90
2124;DHT22;1068;52.460;13.528;2022-07-15T03:32:14;16.00;99.90
2124;DHT22;1068;52.460;13.528;2022-07-15T03:34:41;15.90;99.90
2124;DHT22;1068;52.460;13.528;2022-07-15T03:37:09;15.90;99.90
2124;DHT22;1068;52.460;13.528;2022-07-15T03:39:36;15.80;99.90
2124;DHT22;1068;52.460;13.528;2022-07-15T03:42:03;15.80;99.90
2124;DHT22;1068;52.460;13.528;2022-07-15T03:44:30;15.90;99.90
2124;DHT22;1068;52.460;13.528;2022-07-15T03:46:56;15.90;99.90
2124;DHT22;1068;52.460;13.528;2022-07-15T03:49:23;15.80;99.90
2124;DHT22;1068;52.460;13.528;2022-07-15T03:51:49;15.80;99.90
2124;DHT22;1068;52.460;13.528;2022-07-15T03:54:17;15.80;99.90
2124;DHT22;1068;52.460;13.528;2022-07-15T03:56:43;15.70;99.90
2124;DHT22;1068;52.460;13.528;2022-07-15T03:59:13;15.70;99.90
2124;DHT22;1068;52.460;13.528;2022-07-15T04:01:39;15.70;99.90
2124;DHT22;1068;52.460;13.528;2022-07-15T04:04:06;15.70;99.90
2124;DHT22;1068;52.460;13.528;2022-07-15T04:06:32;15.70;99.90
2124;DHT22;1068;52.460;13.528;2022-07-15T04:08:59;15.70;99.90
2124;DHT22;1068;52.460;13.528;2022-07-15T04:11:26;15.70;99.90
2124;DHT22;1068;52.460;13.528;2022-07-15T04:13:53;15.80;99.90
2124;DHT22;1068;52.460;13.528;2022-07-15T04:16:19;15.90;99.90
2124;DHT22;1068;52.460;13.528;2022-07-15T04:18:46;15.80;99.90
2124;DHT22;1068;52.460;13.528;2022-07-15T04:21:13;15.80;99.90
2124;DHT22;1068;52.460;13.528;2022-07-15T04:23:39;15.90;99.90
2124;DHT22;1068;52.460;13.528;2022-07-15T04:26:06;15.90;99.90
2124;DHT22;1068;52.460;13.528;2022-07-15T04:28:34;16.00;99.90
2124;DHT22;1068;52.460;13.528;2022-07-15T04:31:00;16.10;99.90
2124;DHT22;1068;52.460;13.528;2022-07-15T04:33:27;16.20;99.90
2124;DHT22;1068;52.460;13.528;2022-07-15T04:35:53;16.20;99.90
2124;DHT22;1068;52.460;13.528;2022-07-15T04:38:20;16.20;99.90
2124;DHT22;1068;52.460;13.528;2022-07-15T04:40:47;16.20;99.90
2124;DHT22;1068;52.460;13.528;2022-07-15T04:43:13;16.30;99.90
2124;DHT22;1068;52.460;13.528;2022-07-15T04:45:41;16.40;99.90
2124;DHT22;1068;52.460;13.528;2022-07-15T04:48:07;16.40;99.90
2124;DHT22;1068;52.460;13.528;2022-07-15T04:50:48;16.50;99.90
2124;DHT22;1068;52.460;13.528;2022-07-15T04:53:17;16.60;99.90
2124;DHT22;1068;52.460;13.528;2022-07-15T04:55:44;16.50;99.90
2124;DHT22;1068;52.460;13.528;2022-07-15T04:58:10;16.50;99.90
2124;DHT22;1068;52.460;13.528;2022-07-15T05:00:41;16.40;99.90
2124;DHT22;1068;52.460;13.528;2022-07-15T05:03:07;16.30;99.90
2124;DHT22;1068;52.460;13.528;2022-07-15T05:05:34;16.40;99.90
2124;DHT22;1068;52.460;13.528;2022-07-15T05:08:00;16.30;99.90
2124;DHT22;1068;52.460;13.528;2022-07-15T05:10:27;16.30;99.90
2124;DHT22;1068;52.460;13.528;2022-07-15T05:12:53;16.40;99.90
2124;DHT22;1068;52.460;13.528;2022-07-15T05:15:20;16.40;99.90
2124;DHT22;1068;52.460;13.528;2022-07-15T05:17:47;16.50;99.90
2124;DHT22;1068;52.460;13.528;2022-07-15T05:20:14;16.70;99.90
2124;DHT22;1068;52.460;13.528;2022-07-15T05:22:40;16.70;99.90
2124;DHT22;1068;52.460;13.528;2022-07-15T05:25:07;16.90;99.90
2124;DHT22;1068;52.460;13.528;2022-07-15T05:27:34;17.20;99.90
2124;DHT22;1068;52.460;13.528;2022-07-15T05:30:01;17.50;99.90
2124;DHT22;1068;52.460;13.528;2022-07-15T05:32:27;17.60;99.90
2124;DHT22;1068;52.460;13.528;2022-07-15T05:34:55;17.60;99.90
2124;DHT22;1068;52.460;13.528;2022-07-15T05:37:22;17.80;99.90
2124;DHT22;1068;52.460;13.528;2022-07-15T05:39:48;17.80;99.90
2124;DHT22;1068;52.460;13.528;2022-07-15T05:42:22;17.80;99.90
2124;DHT22;1068;52.460;13.528;2022-07-15T05:44:49;17.80;99.90
2124;DHT22;1068;52.460;13.528;2022-07-15T05:47:16;17.80;99.90
2124;DHT22;1068;52.460;13.528;2022-07-15T05:49:42;17.90;99.90
2124;DHT22;1068;52.460;13.528;2022-07-15T05:52:10;18.10;99.90
2124;DHT22;1068;52.460;13.528;2022-07-15T05:54:37;18.20;99.90
2124;DHT22;1068;52.460;13.528;2022-07-15T05:57:03;18.10;99.90
2124;DHT22;1068;52.460;13.528;2022-07-15T05:59:30;18.10;99.90
2124;DHT22;1068;52.460;13.528;2022-07-15T06:01:57;18.00;99.90
2124;DHT22;1068;52.460;13.528;2022-07-15T06:04:24;18.00;99.90
2124;DHT22;1068;52.460;13.528;2022-07-15T06:06:51;18.10;99.90
2124;DHT22;1068;52.460;13.528;2022-07-15T06:09:20;18.30;99.90
2124;DHT22;1068;52.460;13.528;2022-07-15T06:11:46;18.40;99.90
2124;DHT22;1068;52.460;13.528;2022-07-15T06:14:13;18.40;99.90
2124;DHT22;1068;52.460;13.528;2022-07-15T06:16:40;18.30;99.90
2124;DHT22;1068;52.460;13.528;2022-07-15T06:19:06;18.40;99.90
2124;DHT22;1068;52.460;13.528;2022-07-15T06:21:34;18.40;99.90
2124;DHT22;1068;52.460;13.528;2022-07-15T06:24:00;18.50;99.90
2124;DHT22;1068;52.460;13.528;2022-07-15T06:26:28;18.60;99.90
2124;DHT22;1068;52.460;13.528;2022-07-15T06:28:55;18.60;99.90
2124;DHT22;1068;52.460;13.528;2022-07-15T06:31:21;18.60;99.90
2124;DHT22;1068;52.460;13.528;2022-07-15T06:33:48;18.70;99.90
2124;DHT22;1068;52.460;13.528;2022-07-15T06:36:15;18.80;99.90
2124;DHT22;1068;52.460;13.528;2022-07-15T06:38:41;18.90;99.90
2124;DHT22;1068;52.460;13.528;2022-07-15T06:41:08;19.00;99.90
2124;DHT22;1068;52.460;13.528;2022-07-15T06:43:35;19.10;99.90
2124;DHT22;1068;52.460;13.528;2022-07-15T06:46:02;19.10;99.90
2124;DHT22;1068;52.460;13.528;2022-07-15T06:48:29;19.20;99.90
2124;DHT22;1068;52.460;13.528;2022-07-15T06:50:56;19.20;99.90
2124;DHT22;1068;52.460;13.528;2022-07-15T06:53:22;19.20;99.90
2124;DHT22;1068;52.460;13.528;2022-07-15T06:55:50;19.10;99.90
2124;DHT22;1068;52.460;13.528;2022-07-15T06:58:17;19.10;99.90
2124;DHT22;1068;52.460;13.528;2022-07-15T07:00:45;19.20;99.90
2124;DHT22;1068;52.460;13.528;2022-07-15T07:03:12;19.20;99.90
2124;DHT22;1068;52.460;13.528;2022-07-15T07:05:38;19.30;99.90
2124;DHT22;1068;52.460;13.528;2022-07-15T07:08:05;19.30;99.90
2124;DHT22;1068;52.460;13.528;2022-07-15T07:10:32;19.20;99.90
2124;DHT22;1068;52.460;13.528;2022-07-15T07:12:59;19.20;99.90
2124;DHT22;1068;52.460;13.528;2022-07-15T07:15:26;19.10;99.90
2124;DHT22;1068;52.460;13.528;2022-07-15T07:17:54;19.10;99.90
2124;DHT22;1068;52.460;13.528;2022-07-15T07:20:20;19.30;99.90
2124;DHT22;1068;52.460;13.528;2022-07-15T07:22:47;19.30;99.90
2124;DHT22;1068;52.460;13.528;2022-07-15T07:25:14;19.40;99.90
2124;DHT22;1068;52.460;13.528;2022-07-15T07:27:40;19.50;99.90
2124;DHT22;1068;52.460;13.528;2022-07-15T07:30:08;19.60;99.90
2124;DHT22;1068;52.460;13.528;2022-07-15T07:32:34;19.90;99.90
2124;DHT22;1068;52.460;13.528;2022-07-15T07:35:03;20.00;99.90
2124;DHT22;1068;52.460;13.528;2022-07-15T07:37:33;20.20;99.90
2124;DHT22;1068;52.460;13.528;2022-07-15T07:40:00;20.30;99.90
2124;DHT22;1068;52.460;13.528;2022-07-15T07:42:26;20.20;99.90
2124;DHT22;1068;52.460;13.528;2022-07-15T07:44:53;20.20;99.90
2124;DHT22;1068;52.460;13.528;2022-07-15T07:47:20;20.10;99.90
2124;DHT22;1068;52.460;13.528;2022-07-15T07:49:47;20.00;99.90
2124;DHT22;1068;52.460;13.528;2022-07-15T07:52:15;20.00;99.90
2124;DHT22;1068;52.460;13.528;2022-07-15T07:54:41;19.90;99.90
2124;DHT22;1068;52.460;13.528;2022-07-15T07:57:09;19.90;99.90
2124;DHT22;1068;52.460;13.528;2022-07-15T07:59:35;19.90;99.90
2124;DHT22;1068;52.460;13.528;2022-07-15T08:02:02;19.90;99.90
2124;DHT22;1068;52.460;13.528;2022-07-15T08:04:29;19.80;99.90
2124;DHT22;1068;52.460;13.528;2022-07-15T08:06:56;19.70;99.90
2124;DHT22;1068;52.460;13.528;2022-07-15T08:09:23;19.80;99.90
2124;DHT22;1068;52.460;13.528;2022-07-15T08:11:50;20.00;99.90
2124;DHT22;1068;52.460;13.528;2022-07-15T08:14:16;20.20;99.90
2124;DHT22;1068;52.460;13.528;2022-07-15T08:16:43;20.30;99.90
2124;DHT22;1068;52.460;13.528;2022-07-15T08:19:11;20.30;99.90
2124;DHT22;1068;52.460;13.528;2022-07-15T08:21:40;20.50;99.90
2124;DHT22;1068;52.460;13.528;2022-07-15T08:24:07;20.50;99.90
2124;DHT22;1068;52.460;13.528;2022-07-15T08:26:35;20.20;99.90
2124;DHT22;1068;52.460;13.528;2022-07-15T08:29:02;20.20;99.90
2124;DHT22;1068;52.460;13.528;2022-07-15T08:31:29;19.90;99.90
2124;DHT22;1068;52.460;13.528;2022-07-15T08:33:55;19.80;99.90
2124;DHT22;1068;52.460;13.528;2022-07-15T08:36:22;19.70;99.90
2124;DHT22;1068;52.460;13.528;2022-07-15T08:38:48;19.70;99.90
2124;DHT22;1068;52.460;13.528;2022-07-15T08:41:15;19.70;99.90
2124;DHT22;1068;52.460;13.528;2022-07-15T08:43:43;19.70;99.90
2124;DHT22;1068;52.460;13.528;2022-07-15T08:46:10;19.60;99.90
2124;DHT22;1068;52.460;13.528;2022-07-15T08:48:37;19.70;99.90
2124;DHT22;1068;52.460;13.528;2022-07-15T08:51:07;19.90;99.90
2124;DHT22;1068;52.460;13.528;2022-07-15T08:53:33;19.90;99.90
2124;DHT22;1068;52.460;13.528;2022-07-15T08:56:00;19.90;99.90
2124;DHT22;1068;52.460;13.528;2022-07-15T08:58:28;20.00;99.90
2124;DHT22;1068;52.460;13.528;2022-07-15T09:00:55;20.20;99.90
2124;DHT22;1068;52.460;13.528;2022-07-15T09:03:22;20.30;99.90
2124;DHT22;1068;52.460;13.528;2022-07-15T09:05:48;20.30;99.90
2124;DHT22;1068;52.460;13.528;2022-07-15T09:08:16;20.40;99.90
2124;DHT22;1068;52.460;13.528;2022-07-15T09:10:47;20.50;99.90
2124;DHT22;1068;52.460;13.528;2022-07-15T09:13:23;20.70;99.90
2124;DHT22;1068;52.460;13.528;2022-07-15T09:15:51;20.70;99.90
2124;DHT22;1068;52.460;13.528;2022-07-15T09:18:21;20.70;98.60
2124;DHT22;1068;52.460;13.528;2022-07-15T09:20:48;20.70;97.90
2124;DHT22;1068;52.460;13.528;2022-07-15T09:23:16;20.50;98.30
2124;DHT22;1068;52.460;13.528;2022-07-15T09:25:47;20.50;99.30
2124;DHT22;1068;52.460;13.528;2022-07-15T09:28:15;20.50;99.30
2124;DHT22;1068;52.460;13.528;2022-07-15T09:30:43;20.40;99.90
2124;DHT22;1068;52.460;13.528;2022-07-15T09:33:30;20.40;99.90
2124;DHT22;1068;52.460;13.528;2022-07-15T09:36:06;20.50;99.90
2124;DHT22;1068;52.460;13.528;2022-07-15T09:38:35;20.50;99.90
2124;DHT22;1068;52.460;13.528;2022-07-15T09:41:06;20.60;99.90
2124;DHT22;1068;52.460;13.528;2022-07-15T09:43:46;20.70;99.90
2124;DHT22;1068;52.460;13.528;2022-07-15T09:46:13;20.80;99.90
2124;DHT22;1068;52.460;13.528;2022-07-15T09:48:42;20.90;98.00
2124;DHT22;1068;52.460;13.528;2022-07-15T09:51:10;21.00;98.50
2124;DHT22;1068;52.460;13.528;2022-07-15T09:53:37;20.90;98.20
2124;DHT22;1068;52.460;13.528;2022-07-15T09:56:07;20.90;98.30
2124;DHT22;1068;52.460;13.528;2022-07-15T09:58:37;20.90;98.50
2124;DHT22;1068;52.460;13.528;2022-07-15T10:01:03;21.10;98.60
2124;DHT22;1068;52.460;13.528;2022-07-15T10:03:32;21.20;98.10
2124;DHT22;1068;52.460;13.528;2022-07-15T10:06:00;21.30;98.10
2124;DHT22;1068;52.460;13.528;2022-07-15T10:08:28;21.40;97.90
2124;DHT22;1068;52.460;13.528;2022-07-15T10:10:55;21.60;98.20
2124;DHT22;1068;52.460;13.528;2022-07-15T10:16:51;21.60;98.40
2124;DHT22;1068;52.460;13.528;2022-07-15T10:19:26;21.60;98.40
2124;DHT22;1068;52.460;13.528;2022-07-15T10:22:04;21.60;97.60
2124;DHT22;1068;52.460;13.528;2022-07-15T10:24:41;21.60;97.50
2124;DHT22;1068;52.460;13.528;2022-07-15T10:27:23;21.60;97.60
2124;DHT22;1068;52.460;13.528;2022-07-15T10:29:55;21.90;98.30
2124;DHT22;1068;52.460;13.528;2022-07-15T10:32:21;22.30;97.30
2124;DHT22;1068;52.460;13.528;2022-07-15T10:34:48;22.40;95.70
2124;DHT22;1068;52.460;13.528;2022-07-15T10:37:16;22.20;95.80
2124;DHT22;1068;52.460;13.528;2022-07-15T10:39:54;22.10;95.50
2124;DHT22;1068;52.460;13.528;2022-07-15T10:42:23;21.90;95.00
2124;DHT22;1068;52.460;13.528;2022-07-15T10:45:04;21.70;95.00
2124;DHT22;1068;52.460;13.528;2022-07-15T10:47:31;21.50;95.70
2124;DHT22;1068;52.460;13.528;2022-07-15T10:49:58;21.30;96.00
2124;DHT22;1068;52.460;13.528;2022-07-15T10:52:27;21.20;96.20
2124;DHT22;1068;52.460;13.528;2022-07-15T10:55:02;21.30;96.70
2124;DHT22;1068;52.460;13.528;2022-07-15T10:57:52;21.30;96.50
2124;DHT22;1068;52.460;13.528;2022-07-15T11:00:28;21.30;96.30
2124;DHT22;1068;52.460;13.528;2022-07-15T11:03:06;21.40;96.50
2124;DHT22;1068;52.460;13.528;2022-07-15T11:05:34;21.60;95.40
2124;DHT22;1068;52.460;13.528;2022-07-15T11:11:48;21.50;95.60
2124;DHT22;1068;52.460;13.528;2022-07-15T11:14:43;21.70;95.40
2124;DHT22;1068;52.460;13.528;2022-07-15T11:17:11;22.00;94.40
2124;DHT22;1068;52.460;13.528;2022-07-15T11:19:38;22.10;93.90
2124;DHT22;1068;52.460;13.528;2022-07-15T11:22:07;22.10;93.90
2124;DHT22;1068;52.460;13.528;2022-07-15T11:24:34;21.90;94.20
2124;DHT22;1068;52.460;13.528;2022-07-15T11:27:03;21.70;95.00
2124;DHT22;1068;52.460;13.528;2022-07-15T11:29:44;21.70;95.50
2124;DHT22;1068;52.460;13.528;2022-07-15T11:32:11;21.80;95.60
2124;DHT22;1068;52.460;13.528;2022-07-15T11:34:39;21.90;95.20
2124;DHT22;1068;52.460;13.528;2022-07-15T11:37:06;21.80;95.00
2124;DHT22;1068;52.460;13.528;2022-07-15T11:39:33;21.70;95.00
2124;DHT22;1068;52.460;13.528;2022-07-15T11:41:59;22.00;94.70
2124;DHT22;1068;52.460;13.528;2022-07-15T11:44:50;22.20;94.90
2124;DHT22;1068;52.460;13.528;2022-07-15T11:47:17;22.50;94.10
2124;DHT22;1068;52.460;13.528;2022-07-15T11:49:44;22.40;93.60
2124;DHT22;1068;52.460;13.528;2022-07-15T11:52:22;22.40;93.20
2124;DHT22;1068;52.460;13.528;2022-07-15T11:54:48;22.50;93.70
2124;DHT22;1068;52.460;13.528;2022-07-15T11:57:15;22.40;93.20
2124;DHT22;1068;52.460;13.528;2022-07-15T11:59:52;22.30;92.70
2124;DHT22;1068;52.460;13.528;2022-07-15T12:02:23;22.40;93.20
2124;DHT22;1068;52.460;13.528;2022-07-15T12:04:50;22.50;93.00
2124;DHT22;1068;52.460;13.528;2022-07-15T12:07:16;22.70;92.30
2124;DHT22;1068;52.460;13.528;2022-07-15T12:09:44;22.70;91.50
2124;DHT22;1068;52.460;13.528;2022-07-15T12:12:11;22.60;92.00
2124;DHT22;1068;52.460;13.528;2022-07-15T12:14:38;22.60;91.30
2124;DHT22;1068;52.460;13.528;2022-07-15T12:17:06;22.60;90.10
2124;DHT22;1068;52.460;13.528;2022-07-15T12:19:34;22.80;91.20
2124;DHT22;1068;52.460;13.528;2022-07-15T12:22:07;22.90;90.70
2124;DHT22;1068;52.460;13.528;2022-07-15T12:24:40;22.70;90.60
2124;DHT22;1068;52.460;13.528;2022-07-15T12:27:07;22.60;90.50
2124;DHT22;1068;52.460;13.528;2022-07-15T12:29:34;22.50;91.20
2124;DHT22;1068;52.460;13.528;2022-07-15T12:32:02;22.50;90.00
2124;DHT22;1068;52.460;13.528;2022-07-15T12:34:51;22.50;90.10
2124;DHT22;1068;52.460;13.528;2022-07-15T12:37:20;22.70;90.10
2124;DHT22;1068;52.460;13.528;2022-07-15T12:39:54;22.60;89.80
2124;DHT22;1068;52.460;13.528;2022-07-15T12:42:20;22.30;90.10
2124;DHT22;1068;52.460;13.528;2022-07-15T12:45:05;22.30;90.60
2124;DHT22;1068;52.460;13.528;2022-07-15T12:47:31;22.20;90.50
2124;DHT22;1068;52.460;13.528;2022-07-15T12:50:00;22.20;90.70
2124;DHT22;1068;52.460;13.528;2022-07-15T12:52:32;22.30;90.40
2124;DHT22;1068;52.460;13.528;2022-07-15T12:55:00;22.40;90.00
2124;DHT22;1068;52.460;13.528;2022-07-15T12:57:37;22.10;90.70
2124;DHT22;1068;52.460;13.528;2022-07-15T13:00:05;22.40;90.10
2124;DHT22;1068;52.460;13.528;2022-07-15T13:02:56;22.60;86.80
2124;DHT22;1068;52.460;13.528;2022-07-15T13:05:27;22.60;86.30
2124;DHT22;1068;52.460;13.528;2022-07-15T13:07:53;22.50;86.40
2124;DHT22;1068;52.460;13.528;2022-07-15T13:10:21;22.50;86.90
2124;DHT22;1068;52.460;13.528;2022-07-15T13:12:47;22.40;87.90
2124;DHT22;1068;52.460;13.528;2022-07-15T13:15:14;22.30;87.70
2124;DHT22;1068;52.460;13.528;2022-07-15T13:17:40;22.20;88.30
2124;DHT22;1068;52.460;13.528;2022-07-15T13:20:08;22.10;88.90
2124;DHT22;1068;52.460;13.528;2022-07-15T13:22:36;22.00;88.70
2124;DHT22;1068;52.460;13.528;2022-07-15T13:25:03;22.00;88.40
2124;DHT22;1068;52.460;13.528;2022-07-15T13:27:30;22.00;88.90
2124;DHT22;1068;52.460;13.528;2022-07-15T13:29:56;22.20;89.30
2124;DHT22;1068;52.460;13.528;2022-07-15T13:32:23;22.30;88.60
2124;DHT22;1068;52.460;13.528;2022-07-15T13:34:50;22.40;88.90
2124;DHT22;1068;52.460;13.528;2022-07-15T13:37:16;22.40;89.00
2124;DHT22;1068;52.460;13.528;2022-07-15T13:39:44;22.50;87.60
2124;DHT22;1068;52.460;13.528;2022-07-15T13:42:11;22.60;89.10
2124;DHT22;1068;52.460;13.528;2022-07-15T13:44:37;22.80;89.10
2124;DHT22;1068;52.460;13.528;2022-07-15T13:47:04;23.10;85.70
2124;DHT22;1068;52.460;13.528;2022-07-15T13:49:30;23.10;86.90
2124;DHT22;1068;52.460;13.528;2022-07-15T13:52:14;23.00;85.00
2124;DHT22;1068;52.460;13.528;2022-07-15T13:54:40;22.90;85.40
2124;DHT22;1068;52.460;13.528;2022-07-15T13:57:08;22.80;86.50
2124;DHT22;1068;52.460;13.528;2022-07-15T13:59:34;22.70;87.00
2124;DHT22;1068;52.460;13.528;2022-07-15T14:02:01;22.70;86.80
2124;DHT22;1068;52.460;13.528;2022-07-15T14:04:29;22.90;88.50
2124;DHT22;1068;52.460;13.528;2022-07-15T14:06:55;23.00;88.00
2124;DHT22;1068;52.460;13.528;2022-07-15T14:09:22;23.20;88.20
2124;DHT22;1068;52.460;13.528;2022-07-15T14:11:48;23.20;87.00
2124;DHT22;1068;52.460;13.528;2022-07-15T14:14:16;23.20;86.70
2124;DHT22;1068;52.460;13.528;2022-07-15T14:16:43;23.20;86.30
2124;DHT22;1068;52.460;13.528;2022-07-15T14:19:09;23.10;85.80
2124;DHT22;1068;52.460;13.528;2022-07-15T14:21:36;23.00;85.60
2124;DHT22;1068;52.460;13.528;2022-07-15T14:24:03;23.00;86.70
2124;DHT22;1068;52.460;13.528;2022-07-15T14:26:30;23.00;88.10
2124;DHT22;1068;52.460;13.528;2022-07-15T14:28:56;23.20;85.80
2124;DHT22;1068;52.460;13.528;2022-07-15T14:31:24;23.50;86.50
2124;DHT22;1068;52.460;13.528;2022-07-15T14:33:50;23.60;83.80
2124;DHT22;1068;52.460;13.528;2022-07-15T14:36:17;23.30;84.80
2124;DHT22;1068;52.460;13.528;2022-07-15T14:38:43;23.10;85.20
2124;DHT22;1068;52.460;13.528;2022-07-15T14:41:10;22.90;84.90
2124;DHT22;1068;52.460;13.528;2022-07-15T14:43:36;22.80;85.30
2124;DHT22;1068;52.460;13.528;2022-07-15T14:46:03;22.70;85.80
2124;DHT22;1068;52.460;13.528;2022-07-15T14:48:31;22.60;84.70
2124;DHT22;1068;52.460;13.528;2022-07-15T14:50:57;22.50;85.30
2124;DHT22;1068;52.460;13.528;2022-07-15T14:53:24;22.40;86.10
2124;DHT22;1068;52.460;13.528;2022-07-15T14:55:51;22.40;86.80
2124;DHT22;1068;52.460;13.528;2022-07-15T14:58:17;22.40;86.90
2124;DHT22;1068;52.460;13.528;2022-07-15T15:00:45;22.40;87.50
2124;DHT22;1068;52.460;13.528;2022-07-15T15:03:14;22.30;87.80
2124;DHT22;1068;52.460;13.528;2022-07-15T15:05:42;22.20;88.40
2124;DHT22;1068;52.460;13.528;2022-07-15T15:08:08;22.30;88.40
2124;DHT22;1068;52.460;13.528;2022-07-15T15:10:35;22.30;88.30
2124;DHT22;1068;52.460;13.528;2022-07-15T15:13:02;22.30;88.50
2124;DHT22;1068;52.460;13.528;2022-07-15T15:15:28;22.50;88.50
2124;DHT22;1068;52.460;13.528;2022-07-15T15:17:55;22.50;89.10
2124;DHT22;1068;52.460;13.528;2022-07-15T15:20:21;22.50;88.80
2124;DHT22;1068;52.460;13.528;2022-07-15T15:22:49;22.60;89.10
2124;DHT22;1068;52.460;13.528;2022-07-15T15:25:16;22.50;88.50
2124;DHT22;1068;52.460;13.528;2022-07-15T15:28:02;22.50;88.90
2124;DHT22;1068;52.460;13.528;2022-07-15T15:30:29;22.50;88.60
2124;DHT22;1068;52.460;13.528;2022-07-15T15:32:56;22.50;88.70
2124;DHT22;1068;52.460;13.528;2022-07-15T15:35:23;22.50;89.00
2124;DHT22;1068;52.460;13.528;2022-07-15T15:37:51;22.60;89.40
2124;DHT22;1068;52.460;13.528;2022-07-15T15:40:17;22.60;88.40
2124;DHT22;1068;52.460;13.528;2022-07-15T15:42:44;22.70;89.00
2124;DHT22;1068;52.460;13.528;2022-07-15T15:45:11;22.70;87.90
2124;DHT22;1068;52.460;13.528;2022-07-15T15:47:37;22.70;87.30
2124;DHT22;1068;52.460;13.528;2022-07-15T15:50:04;22.60;85.40
2124;DHT22;1068;52.460;13.528;2022-07-15T15:52:31;22.40;85.60
2124;DHT22;1068;52.460;13.528;2022-07-15T15:54:58;22.30;84.30
2124;DHT22;1068;52.460;13.528;2022-07-15T15:57:25;22.10;84.90
2124;DHT22;1068;52.460;13.528;2022-07-15T15:59:52;22.00;84.90
2124;DHT22;1068;52.460;13.528;2022-07-15T16:02:18;22.00;85.30
2124;DHT22;1068;52.460;13.528;2022-07-15T16:04:45;21.90;85.50
2124;DHT22;1068;52.460;13.528;2022-07-15T16:07:11;21.90;86.50
2124;DHT22;1068;52.460;13.528;2022-07-15T16:09:38;22.00;87.00
2124;DHT22;1068;52.460;13.528;2022-07-15T16:12:06;22.00;88.00